createdAt,value
2019-03-24T00:01:40.682Z,5.20
2019-03-24T00:04:02.935Z,5.20
2019-03-24T00:06:33.350Z,5.10
2019-03-24T00:09:02.100Z,5.20
2019-03-24T00:11:30.779Z,5.20
2019-03-24T00:13:58.984Z,5.30
2019-03-24T00:16:28.564Z,5.30
2019-03-24T00:18:56.745Z,5.30
2019-03-24T00:21:24.909Z,5.30
2019-03-24T00:23:53.708Z,5.30
2019-03-24T00:26:23.533Z,5.30
2019-03-24T00:28:52.933Z,5.30
2019-03-24T00:31:21.419Z,5.20
2019-03-24T00:33:49.665Z,5.10
2019-03-24T00:41:27.916Z,5.10
2019-03-24T00:43:56.256Z,5.00
2019-03-24T00:46:24.721Z,4.90
2019-03-24T00:48:52.930Z,4.80
2019-03-24T00:51:21.866Z,4.70
2019-03-24T00:53:51.363Z,4.50
2019-03-24T00:56:19.552Z,4.50
2019-03-24T00:58:48.154Z,4.50
2019-03-24T01:01:16.597Z,4.50
2019-03-24T01:03:44.824Z,4.50
2019-03-24T01:06:13.172Z,4.50
2019-03-24T01:08:41.375Z,4.40
2019-03-24T01:11:09.631Z,4.50
2019-03-24T01:13:40.185Z,4.60
2019-03-24T01:16:08.396Z,4.50
2019-03-24T01:18:39.321Z,4.50
2019-03-24T01:21:10.812Z,4.50
2019-03-24T01:23:41.592Z,4.50
2019-03-24T01:26:14.842Z,4.40
2019-03-24T01:28:43.256Z,4.40
2019-03-24T01:31:11.428Z,4.40
2019-03-24T01:33:42.437Z,4.30
2019-03-24T01:36:13.437Z,4.30
2019-03-24T01:38:41.654Z,4.20
2019-03-24T01:41:10.490Z,4.20
2019-03-24T01:43:38.670Z,4.20
2019-03-24T01:46:10.130Z,4.10
2019-03-24T01:48:38.372Z,4.10
2019-03-24T01:51:06.598Z,4.00
2019-03-24T01:53:35.081Z,4.10
2019-03-24T01:56:03.466Z,4.10
2019-03-24T01:58:40.555Z,4.10
2019-03-24T02:01:08.896Z,4.20
2019-03-24T02:03:37.050Z,4.20
2019-03-24T02:06:05.218Z,4.20
2019-03-24T02:08:34.938Z,4.10
2019-03-24T02:11:03.180Z,4.10
2019-03-24T02:13:31.371Z,4.10
2019-03-24T02:16:09.006Z,4.10
2019-03-24T02:18:29.719Z,4.10
2019-03-24T02:20:57.877Z,4.00
2019-03-24T02:23:26.116Z,4.00
2019-03-24T02:25:54.241Z,4.00
2019-03-24T02:28:22.537Z,4.00
2019-03-24T02:30:50.942Z,3.90
2019-03-24T02:33:21.445Z,4.00
2019-03-24T02:35:49.604Z,4.00
2019-03-24T02:38:20.071Z,3.90
2019-03-24T02:40:48.326Z,3.90
2019-03-24T02:43:16.997Z,3.90
2019-03-24T02:45:45.533Z,3.90
2019-03-24T02:48:15.202Z,3.80
2019-03-24T02:50:43.330Z,3.70
2019-03-24T02:53:11.549Z,3.70
2019-03-24T02:55:39.782Z,3.70
2019-03-24T02:58:07.936Z,3.70
2019-03-24T03:00:41.599Z,3.70
2019-03-24T03:03:09.734Z,3.70
2019-03-24T03:05:37.919Z,3.70
2019-03-24T03:08:06.617Z,3.70
2019-03-24T03:10:36.331Z,3.70
2019-03-24T03:13:04.528Z,3.60
2019-03-24T03:15:33.540Z,3.50
2019-03-24T03:18:01.735Z,3.50
2019-03-24T03:20:29.908Z,3.50
2019-03-24T03:22:58.280Z,3.50
2019-03-24T03:25:26.461Z,3.50
2019-03-24T03:27:54.866Z,3.40
2019-03-24T03:30:23.125Z,3.40
2019-03-24T03:32:51.333Z,3.40
2019-03-24T03:35:20.837Z,3.50
2019-03-24T03:37:49.248Z,3.40
2019-03-24T03:40:17.503Z,3.40
2019-03-24T03:42:45.775Z,3.40
2019-03-24T03:45:19.699Z,3.30
2019-03-24T03:47:48.295Z,3.30
2019-03-24T03:50:16.492Z,3.20
2019-03-24T03:52:45.165Z,3.30
2019-03-24T03:55:13.496Z,3.30
2019-03-24T03:57:41.659Z,3.10
2019-03-24T04:00:36.876Z,3.10
2019-03-24T04:03:05.789Z,3.10
2019-03-24T04:05:33.991Z,3.10
2019-03-24T04:08:02.402Z,3.10
2019-03-24T04:10:30.745Z,3.10
2019-03-24T04:12:59.160Z,3.10
2019-03-24T04:15:27.399Z,3.10
2019-03-24T04:17:55.529Z,3.10
2019-03-24T04:20:23.997Z,3.20
2019-03-24T04:22:52.396Z,3.20
2019-03-24T04:25:20.836Z,3.20
2019-03-24T04:27:49.369Z,3.30
2019-03-24T04:30:18.023Z,3.20
2019-03-24T04:32:46.197Z,3.20
2019-03-24T04:35:14.429Z,3.30
2019-03-24T04:37:42.676Z,3.20
2019-03-24T04:40:20.734Z,3.20
2019-03-24T04:42:58.024Z,3.20
2019-03-24T04:45:26.734Z,3.40
2019-03-24T04:47:55.345Z,3.40
2019-03-24T04:50:23.588Z,3.40
2019-03-24T04:52:52.992Z,3.50
2019-03-24T04:55:21.251Z,3.50
2019-03-24T04:57:49.614Z,3.60
2019-03-24T05:00:22.530Z,3.70
2019-03-24T05:02:50.782Z,3.70
2019-03-24T05:05:19.075Z,3.70
2019-03-24T05:07:47.510Z,3.80
2019-03-24T05:10:34.232Z,3.80
2019-03-24T05:13:02.739Z,3.80
2019-03-24T05:15:31.303Z,3.90
2019-03-24T05:17:59.549Z,3.90
2019-03-24T05:20:27.729Z,3.90
2019-03-24T05:22:55.860Z,4.00
2019-03-24T05:25:24.053Z,3.90
2019-03-24T05:27:52.441Z,4.00
2019-03-24T05:30:20.617Z,4.00
2019-03-24T05:32:48.912Z,4.00
2019-03-24T05:35:17.172Z,4.00
2019-03-24T05:37:45.359Z,4.00
2019-03-24T05:40:13.713Z,4.00
2019-03-24T05:42:41.834Z,3.90
2019-03-24T05:45:10.487Z,4.00
2019-03-24T05:47:38.949Z,4.10
2019-03-24T05:50:07.524Z,4.10
2019-03-24T05:52:35.715Z,4.10
2019-03-24T05:55:04.316Z,4.00
2019-03-24T05:57:32.463Z,4.10
2019-03-24T06:00:04.136Z,4.10
2019-03-24T06:02:32.794Z,4.00
2019-03-24T06:05:00.988Z,4.00
2019-03-24T06:07:31.452Z,3.80
2019-03-24T06:09:59.985Z,3.90
2019-03-24T06:12:28.139Z,3.90
2019-03-24T06:14:58.120Z,3.90
2019-03-24T06:17:27.597Z,4.00
2019-03-24T06:20:00.566Z,4.10
2019-03-24T06:22:29.155Z,4.00
2019-03-24T06:24:57.428Z,4.10
2019-03-24T06:27:25.613Z,4.10
2019-03-24T06:29:53.968Z,4.20
2019-03-24T06:32:22.192Z,4.40
2019-03-24T06:34:50.394Z,4.30
2019-03-24T06:37:18.591Z,4.40
2019-03-24T06:39:46.815Z,4.50
2019-03-24T06:42:17.225Z,4.50
2019-03-24T06:44:45.309Z,4.50
2019-03-24T06:47:13.549Z,4.60
2019-03-24T06:53:25.436Z,4.90
2019-03-24T06:55:53.686Z,5.00
2019-03-24T06:58:21.863Z,4.90
2019-03-24T07:00:51.514Z,4.90
2019-03-24T07:03:20.159Z,5.10
2019-03-24T07:05:48.620Z,5.20
2019-03-24T07:08:17.194Z,5.30
2019-03-24T07:10:45.474Z,5.20
2019-03-24T07:13:16.638Z,5.30
2019-03-24T07:15:44.909Z,5.40
2019-03-24T07:18:13.488Z,5.50
2019-03-24T07:20:41.833Z,5.50
2019-03-24T07:23:10.068Z,5.60
2019-03-24T07:25:38.462Z,5.50
2019-03-24T07:28:06.698Z,5.60
2019-03-24T07:30:35.213Z,5.70
2019-03-24T07:33:03.407Z,5.80
2019-03-24T07:35:31.745Z,5.80
2019-03-24T07:38:00.002Z,5.90
2019-03-24T07:40:28.281Z,6.00
2019-03-24T07:42:56.636Z,6.10
2019-03-24T07:45:26.816Z,6.20
2019-03-24T07:47:55.042Z,6.40
2019-03-24T07:50:24.099Z,6.40
2019-03-24T07:53:20.378Z,6.40
2019-03-24T07:56:00.087Z,6.40
2019-03-24T07:58:28.705Z,6.60
2019-03-24T08:00:58.846Z,6.50
2019-03-24T08:03:26.979Z,6.60
2019-03-24T08:06:14.809Z,6.80
2019-03-24T08:08:56.535Z,6.80
2019-03-24T08:11:35.326Z,6.60
2019-03-24T08:14:12.870Z,7.00
2019-03-24T08:16:50.709Z,7.00
2019-03-24T08:27:11.596Z,7.30
2019-03-24T08:29:55.793Z,7.80
2019-03-24T08:32:44.799Z,8.20
2019-03-24T08:39:07.003Z,8.20
2019-03-24T08:41:35.785Z,8.30
2019-03-24T08:44:32.847Z,8.20
2019-03-24T08:47:02.588Z,8.10
2019-03-24T08:49:32.249Z,8.20
2019-03-24T08:52:00.464Z,8.30
2019-03-24T08:54:30.795Z,8.50
2019-03-24T08:57:04.798Z,8.20
2019-03-24T08:59:33.501Z,8.50
2019-03-24T09:02:02.906Z,8.70
2019-03-24T09:04:36.652Z,8.50
2019-03-24T09:07:07.012Z,8.50
2019-03-24T09:09:40.660Z,8.70
2019-03-24T09:12:09.191Z,8.60
2019-03-24T09:14:37.474Z,8.80
2019-03-24T09:17:05.892Z,8.90
2019-03-24T09:19:34.528Z,8.90
2019-03-24T09:22:07.674Z,8.80
2019-03-24T09:24:35.824Z,9.00
2019-03-24T09:27:06.115Z,9.10
2019-03-24T09:29:34.342Z,9.10
2019-03-24T09:32:02.628Z,9.00
2019-03-24T09:34:31.143Z,9.00
2019-03-24T09:36:59.463Z,9.10
2019-03-24T09:39:30.029Z,9.20
2019-03-24T09:41:59.684Z,9.00
2019-03-24T09:44:34.522Z,9.20
2019-03-24T09:47:06.636Z,9.20
2019-03-24T09:49:36.287Z,9.20
2019-03-24T09:52:04.565Z,9.30
2019-03-24T09:54:33.728Z,9.40
2019-03-24T09:57:02.350Z,9.40
2019-03-24T09:59:30.812Z,9.50
2019-03-24T10:02:03.578Z,9.50
2019-03-24T10:04:32.210Z,9.60
2019-03-24T10:07:01.111Z,9.70
2019-03-24T10:09:29.581Z,9.60
2019-03-24T10:12:01.078Z,9.80
2019-03-24T10:14:41.982Z,9.80
2019-03-24T10:17:10.640Z,9.60
2019-03-24T10:19:39.224Z,9.60
2019-03-24T10:22:07.816Z,9.70
2019-03-24T10:24:40.295Z,9.80
2019-03-24T10:27:18.049Z,10.30
2019-03-24T10:29:58.471Z,10.20
2019-03-24T10:32:27.402Z,10.10
2019-03-24T10:34:55.770Z,10.10
2019-03-24T10:37:28.381Z,10.30
2019-03-24T10:40:01.050Z,9.70
2019-03-24T10:42:39.668Z,10.40
2019-03-24T10:45:25.433Z,11.00
2019-03-24T10:48:39.293Z,11.00
2019-03-24T10:51:45.184Z,11.20
2019-03-24T10:54:31.089Z,11.40
2019-03-24T10:57:25.083Z,11.70
2019-03-24T11:00:07.482Z,11.40
2019-03-24T11:03:07.327Z,11.80
2019-03-24T11:06:01.106Z,11.30
2019-03-24T11:12:04.838Z,11.60
2019-03-24T11:14:46.344Z,11.40
2019-03-24T11:17:15.465Z,11.40
2019-03-24T11:20:08.331Z,11.00
2019-03-24T11:22:45.257Z,11.50
2019-03-24T11:25:14.182Z,11.50
2019-03-24T11:27:44.230Z,11.40
2019-03-24T11:30:14.296Z,11.60
2019-03-24T11:32:42.998Z,11.70
2019-03-24T11:35:12.651Z,11.80
2019-03-24T11:37:42.818Z,11.80
2019-03-24T11:40:14.108Z,11.80
2019-03-24T11:42:42.298Z,11.90
2019-03-24T11:45:13.713Z,11.70
2019-03-24T11:47:43.099Z,12.00
2019-03-24T11:50:12.325Z,12.30
2019-03-24T11:52:42.285Z,12.50
2019-03-24T11:55:11.110Z,12.60
2019-03-24T11:57:40.339Z,12.40
2019-03-24T12:00:09.906Z,12.40
2019-03-24T12:02:40.710Z,12.20
2019-03-24T12:05:23.403Z,12.00
2019-03-24T12:08:01.914Z,12.20
2019-03-24T12:10:36.753Z,12.20
2019-03-24T12:13:26.779Z,12.10
2019-03-24T12:16:01.121Z,12.10
2019-03-24T12:18:32.903Z,12.30
2019-03-24T12:21:01.273Z,11.90
2019-03-24T12:23:30.791Z,12.00
2019-03-24T12:26:18.600Z,12.10
2019-03-24T12:28:48.611Z,11.70
2019-03-24T12:31:19.340Z,11.70
2019-03-24T12:33:50.910Z,11.80
2019-03-24T12:36:19.614Z,11.80
2019-03-24T12:39:28.715Z,11.60
2019-03-24T12:41:59.534Z,11.60
2019-03-24T12:44:30.780Z,11.80
2019-03-24T12:54:38.424Z,11.40
2019-03-24T12:57:19.185Z,11.50
2019-03-24T13:00:02.870Z,11.40
2019-03-24T13:02:33.278Z,11.40
2019-03-24T13:08:15.842Z,11.10
2019-03-24T13:10:56.298Z,11.20
2019-03-24T13:13:34.210Z,11.10
2019-03-24T13:16:06.704Z,10.90
2019-03-24T13:22:26.394Z,11.10
2019-03-24T13:25:00.565Z,10.90
2019-03-24T13:27:31.797Z,10.90
2019-03-24T13:30:05.723Z,11.00
2019-03-24T13:32:39.988Z,10.90
2019-03-24T13:35:27.739Z,11.00
2019-03-24T13:38:12.700Z,11.10
2019-03-24T13:44:46.199Z,11.30
2019-03-24T13:47:30.455Z,11.60
2019-03-24T13:50:02.999Z,12.00
2019-03-24T13:52:39.596Z,12.20
2019-03-24T13:55:35.485Z,12.10
2019-03-24T13:58:07.404Z,12.20
2019-03-24T14:00:44.790Z,11.90
2019-03-24T14:03:19.462Z,12.10
2019-03-24T14:05:53.834Z,11.90
2019-03-24T14:08:22.089Z,11.90
2019-03-24T14:10:50.441Z,11.80
2019-03-24T14:13:22.936Z,11.90
2019-03-24T14:15:51.903Z,11.80
2019-03-24T14:18:27.072Z,11.80
2019-03-24T14:25:26.122Z,11.80
2019-03-24T14:28:10.114Z,11.80
2019-03-24T14:30:54.595Z,11.90
2019-03-24T14:33:23.325Z,11.90
2019-03-24T14:35:56.585Z,11.80
2019-03-24T14:38:25.148Z,11.70
2019-03-24T14:41:06.522Z,11.70
2019-03-24T14:44:12.245Z,11.70
2019-03-24T14:46:44.284Z,11.80
2019-03-24T14:49:15.282Z,11.90
2019-03-24T14:51:44.085Z,11.70
2019-03-24T14:54:14.519Z,11.70
2019-03-24T14:56:42.970Z,11.60
2019-03-24T14:59:14.973Z,11.40
2019-03-24T15:01:49.855Z,11.50
2019-03-24T15:04:24.138Z,11.70
2019-03-24T15:06:58.150Z,11.60
2019-03-24T15:09:28.439Z,11.40
2019-03-24T15:11:58.607Z,11.40
2019-03-24T15:21:17.750Z,11.40
2019-03-24T15:23:56.110Z,11.40
2019-03-24T15:26:25.552Z,11.20
2019-03-24T15:29:08.729Z,10.90
2019-03-24T15:31:45.244Z,11.00
2019-03-24T15:34:33.153Z,10.90
2019-03-24T15:37:22.163Z,10.80
2019-03-24T15:42:59.348Z,10.80
2019-03-24T15:45:32.971Z,10.80
2019-03-24T15:48:13.704Z,10.80
2019-03-24T15:50:56.056Z,10.80
2019-03-24T15:53:26.069Z,10.90
2019-03-24T15:55:55.687Z,10.90
2019-03-24T15:58:45.802Z,10.70
2019-03-24T16:01:17.852Z,10.70
2019-03-24T16:03:49.122Z,10.60
2019-03-24T16:06:17.439Z,10.60
2019-03-24T16:09:08.889Z,10.60
2019-03-24T16:18:24.155Z,10.50
2019-03-24T16:20:53.425Z,10.50
2019-03-24T16:23:40.759Z,10.50
2019-03-24T16:26:24.697Z,10.50
2019-03-24T16:28:55.102Z,10.50
2019-03-24T16:31:27.963Z,10.50
2019-03-24T16:33:58.420Z,10.60
2019-03-24T16:36:26.653Z,10.40
2019-03-24T16:39:19.344Z,10.40
2019-03-24T16:41:55.504Z,10.60
2019-03-24T16:44:24.215Z,10.60
2019-03-24T16:47:13.166Z,10.50
2019-03-24T16:49:42.204Z,10.40
2019-03-24T16:52:11.517Z,10.30
2019-03-24T16:54:42.682Z,10.20
2019-03-24T16:57:23.064Z,10.20
2019-03-24T16:59:57.108Z,10.10
2019-03-24T17:02:27.489Z,10.00
2019-03-24T17:05:17.333Z,9.90
2019-03-24T17:07:47.727Z,9.90
2019-03-24T17:10:16.418Z,9.90
2019-03-24T17:13:11.330Z,9.90
2019-03-24T17:15:48.271Z,9.90
2019-03-24T17:18:17.273Z,9.90
2019-03-24T17:21:33.083Z,9.90
2019-03-24T17:24:22.857Z,9.80
2019-03-24T17:26:51.886Z,9.60
2019-03-24T17:29:20.831Z,9.50
2019-03-24T17:31:50.587Z,9.50
2019-03-24T17:34:27.923Z,9.50
2019-03-24T17:36:56.132Z,9.40
2019-03-24T17:46:21.809Z,9.30
2019-03-24T17:48:52.727Z,9.20
2019-03-24T17:51:28.883Z,9.20
2019-03-24T17:53:57.018Z,9.10
2019-03-24T17:56:25.482Z,9.10
2019-03-24T17:58:53.987Z,9.00
2019-03-24T18:01:29.535Z,9.00
2019-03-24T18:04:05.608Z,9.00
2019-03-24T18:06:43.297Z,8.90
2019-03-24T18:09:16.088Z,8.90
2019-03-24T18:11:48.514Z,8.80
2019-03-24T18:14:19.880Z,8.80
2019-03-24T18:16:58.151Z,8.80
2019-03-24T18:23:45.078Z,8.80
2019-03-24T18:26:17.225Z,8.80
2019-03-24T18:28:46.201Z,8.80
2019-03-24T18:31:29.437Z,8.80
2019-03-24T18:34:25.804Z,8.80
2019-03-24T18:37:17.612Z,8.80
2019-03-24T18:40:09.361Z,8.80
2019-03-24T18:43:21.952Z,8.90
2019-03-24T18:46:44.365Z,8.90
2019-03-24T18:49:37.246Z,8.80
2019-03-24T18:52:32.637Z,8.70
2019-03-24T18:55:08.628Z,8.60
2019-03-24T18:57:41.080Z,8.60
2019-03-24T19:00:12.841Z,8.50
2019-03-24T19:02:52.432Z,8.60
2019-03-24T19:06:41.349Z,8.60
2019-03-24T19:09:10.817Z,8.60
2019-03-24T19:11:40.858Z,8.50
2019-03-24T19:14:13.854Z,8.50
2019-03-24T19:16:42.306Z,8.40
2019-03-24T19:19:18.267Z,8.50
2019-03-24T19:21:49.692Z,8.50
2019-03-24T19:24:21.855Z,8.50
2019-03-24T19:26:57.046Z,8.50
2019-03-24T19:29:31.813Z,8.50
2019-03-24T19:32:11.131Z,8.60
2019-03-24T19:34:48.087Z,8.60
2019-03-24T19:37:35.591Z,8.60
2019-03-24T19:40:15.955Z,8.60
2019-03-24T19:42:50.408Z,8.70
2019-03-24T19:45:32.191Z,8.50
2019-03-24T19:48:13.224Z,8.50
2019-03-24T19:51:23.114Z,8.40
2019-03-24T19:53:54.633Z,8.40
2019-03-24T19:56:31.561Z,8.40
2019-03-24T19:59:04.042Z,8.40
2019-03-24T20:01:33.047Z,8.30
2019-03-24T20:04:01.718Z,8.20
2019-03-24T20:06:34.934Z,8.20
2019-03-24T20:09:11.603Z,8.10
2019-03-24T20:11:41.171Z,8.10
2019-03-24T20:14:54.841Z,8.10
2019-03-24T20:24:57.461Z,8.20
2019-03-24T20:27:42.674Z,8.10
2019-03-24T20:30:15.514Z,8.00
2019-03-24T20:32:52.475Z,8.00
2019-03-24T20:35:27.193Z,8.00
2019-03-24T20:38:07.953Z,8.00
2019-03-24T20:40:50.719Z,7.80
2019-03-24T20:43:26.105Z,7.70
2019-03-24T20:45:57.031Z,7.70
2019-03-24T20:48:30.132Z,7.60
2019-03-24T20:50:58.533Z,7.50
2019-03-24T20:53:30.099Z,7.50
2019-03-24T20:56:07.191Z,7.40
2019-03-24T20:58:35.826Z,7.40
2019-03-24T21:01:08.284Z,7.30
2019-03-24T21:03:40.394Z,7.30
2019-03-24T21:06:08.951Z,7.20
2019-03-24T21:08:37.285Z,7.20
2019-03-24T21:11:06.038Z,7.20
2019-03-24T21:13:35.434Z,7.20
2019-03-24T21:16:07.023Z,7.10
2019-03-24T21:18:36.817Z,7.10
2019-03-24T21:21:10.774Z,7.10
2019-03-24T21:23:51.231Z,7.00
2019-03-24T21:26:37.570Z,6.90
2019-03-24T21:29:06.912Z,6.90
2019-03-24T21:31:40.521Z,6.80
2019-03-24T21:34:14.380Z,6.70
2019-03-24T21:36:49.354Z,6.70
2019-03-24T21:39:23.306Z,6.70
2019-03-24T21:42:21.940Z,6.80
2019-03-24T21:44:50.642Z,6.70
2019-03-24T21:47:18.892Z,6.70
2019-03-24T21:49:48.632Z,6.60
2019-03-24T21:52:17.149Z,6.60
2019-03-24T21:54:49.493Z,6.50
2019-03-24T21:57:22.399Z,6.50
2019-03-24T21:59:50.618Z,6.40
2019-03-24T22:02:19.832Z,6.20
2019-03-24T22:04:51.427Z,6.10
2019-03-24T22:07:19.769Z,6.00
2019-03-24T22:09:48.204Z,5.90
2019-03-24T22:12:16.486Z,5.70
2019-03-24T22:14:47.720Z,5.60
2019-03-24T22:17:15.991Z,5.70
2019-03-24T22:19:46.586Z,5.60
2019-03-24T22:22:14.990Z,5.60
2019-03-24T22:24:43.336Z,5.40
2019-03-24T22:27:12.858Z,5.30
2019-03-24T22:29:41.110Z,5.30
2019-03-24T22:32:09.330Z,5.10
2019-03-24T22:34:38.233Z,5.10
2019-03-24T22:37:15.493Z,5.10
2019-03-24T22:39:36.441Z,5.10
2019-03-24T22:42:04.941Z,5.10
2019-03-24T22:44:34.248Z,5.10
2019-03-24T22:47:04.723Z,5.00
2019-03-24T22:49:33.532Z,4.90
2019-03-24T22:52:07.275Z,4.80
2019-03-24T22:54:39.478Z,4.60
2019-03-24T22:57:07.868Z,4.60
2019-03-24T22:59:46.962Z,4.60
2019-03-24T23:02:16.915Z,4.40
2019-03-24T23:04:45.282Z,4.40
2019-03-24T23:07:13.641Z,4.30
2019-03-24T23:09:41.874Z,4.20
2019-03-24T23:12:11.418Z,4.20
2019-03-24T23:14:41.054Z,4.20
2019-03-24T23:17:09.477Z,4.20
2019-03-24T23:19:42.243Z,4.20
2019-03-24T23:22:38.670Z,4.20
2019-03-24T23:25:07.286Z,4.20
2019-03-24T23:27:37.253Z,4.10
2019-03-24T23:30:07.446Z,4.00
2019-03-24T23:32:38.287Z,3.90
2019-03-24T23:35:06.975Z,3.80
2019-03-24T23:37:35.389Z,3.80
2019-03-24T23:40:04.393Z,3.70
2019-03-24T23:42:32.873Z,3.70
2019-03-24T23:45:01.142Z,3.70
2019-03-24T23:47:29.307Z,3.70
2019-03-24T23:49:57.607Z,3.70
2019-03-24T23:52:26.330Z,3.70
2019-03-24T23:54:56.989Z,3.60
2019-03-24T23:57:28.409Z,3.60
2019-03-24T23:59:59.719Z,3.60
